sensor_id;sensor_type;location;lat;lon;timestamp;P1;durP1;ratioP1;P2;durP2;ratioP2
8636;SDS011;4356;49.068;8.658;2023-11-18T00:00:18;3.13;;;2.93;;
8636;SDS011;4356;49.068;8.658;2023-11-18T00:02:44;3.33;;;3.13;;
8636;SDS011;4356;49.068;8.658;2023-11-18T00:05:10;2.00;;;1.90;;
8636;SDS011;4356;49.068;8.658;2023-11-18T00:07:36;3.07;;;2.87;;
8636;SDS011;4356;49.068;8.658;2023-11-18T00:10:01;3.13;;;2.93;;
8636;SDS011;4356;49.068;8.658;2023-11-18T00:12:28;3.10;;;2.90;;
8636;SDS011;4356;49.068;8.658;2023-11-18T00:14:54;2.37;;;2.27;;
8636;SDS011;4356;49.068;8.658;2023-11-18T00:17:19;2.63;;;2.53;;
8636;SDS011;4356;49.068;8.658;2023-11-18T00:19:45;2.80;;;2.70;;
8636;SDS011;4356;49.068;8.658;2023-11-18T00:22:12;2.80;;;2.70;;
8636;SDS011;4356;49.068;8.658;2023-11-18T00:24:37;3.10;;;2.90;;
8636;SDS011;4356;49.068;8.658;2023-11-18T00:27:03;3.57;;;2.53;;
8636;SDS011;4356;49.068;8.658;2023-11-18T00:29:34;2.77;;;2.50;;
8636;SDS011;4356;49.068;8.658;2023-11-18T00:32:00;2.80;;;2.60;;
8636;SDS011;4356;49.068;8.658;2023-11-18T00:34:26;2.60;;;2.50;;
8636;SDS011;4356;49.068;8.658;2023-11-18T00:36:54;3.27;;;3.07;;
8636;SDS011;4356;49.068;8.658;2023-11-18T00:39:21;2.63;;;2.53;;
8636;SDS011;4356;49.068;8.658;2023-11-18T00:41:46;3.27;;;3.07;;
8636;SDS011;4356;49.068;8.658;2023-11-18T00:44:11;2.87;;;2.67;;
8636;SDS011;4356;49.068;8.658;2023-11-18T00:46:38;2.67;;;2.47;;
8636;SDS011;4356;49.068;8.658;2023-11-18T00:49:04;3.07;;;2.87;;
8636;SDS011;4356;49.068;8.658;2023-11-18T00:51:30;3.03;;;2.87;;
8636;SDS011;4356;49.068;8.658;2023-11-18T00:53:55;3.17;;;3.00;;
8636;SDS011;4356;49.068;8.658;2023-11-18T00:56:21;3.53;;;3.03;;
8636;SDS011;4356;49.068;8.658;2023-11-18T00:58:47;3.03;;;2.90;;
8636;SDS011;4356;49.068;8.658;2023-11-18T01:01:15;3.03;;;2.83;;
8636;SDS011;4356;49.068;8.658;2023-11-18T01:03:45;3.07;;;2.90;;
8636;SDS011;4356;49.068;8.658;2023-11-18T01:06:11;3.00;;;2.80;;
8636;SDS011;4356;49.068;8.658;2023-11-18T01:08:37;3.10;;;3.00;;
8636;SDS011;4356;49.068;8.658;2023-11-18T01:11:03;2.43;;;2.33;;
8636;SDS011;4356;49.068;8.658;2023-11-18T01:13:32;3.20;;;3.00;;
8636;SDS011;4356;49.068;8.658;2023-11-18T01:15:57;3.17;;;2.97;;
8636;SDS011;4356;49.068;8.658;2023-11-18T01:18:22;2.70;;;2.60;;
8636;SDS011;4356;49.068;8.658;2023-11-18T01:20:48;3.93;;;3.53;;
8636;SDS011;4356;49.068;8.658;2023-11-18T01:23:13;4.40;;;3.00;;
8636;SDS011;4356;49.068;8.658;2023-11-18T01:25:39;2.97;;;2.87;;
8636;SDS011;4356;49.068;8.658;2023-11-18T01:28:05;3.13;;;2.93;;
8636;SDS011;4356;49.068;8.658;2023-11-18T01:30:31;3.10;;;2.90;;
8636;SDS011;4356;49.068;8.658;2023-11-18T01:32:57;3.03;;;2.83;;
8636;SDS011;4356;49.068;8.658;2023-11-18T01:35:25;3.27;;;3.07;;
8636;SDS011;4356;49.068;8.658;2023-11-18T01:37:51;3.17;;;2.97;;
8636;SDS011;4356;49.068;8.658;2023-11-18T01:40:17;3.10;;;2.90;;
8636;SDS011;4356;49.068;8.658;2023-11-18T01:42:45;3.37;;;2.97;;
8636;SDS011;4356;49.068;8.658;2023-11-18T01:45:14;2.87;;;2.67;;
8636;SDS011;4356;49.068;8.658;2023-11-18T01:47:41;3.57;;;3.27;;
8636;SDS011;4356;49.068;8.658;2023-11-18T01:50:09;3.40;;;3.10;;
8636;SDS011;4356;49.068;8.658;2023-11-18T01:52:36;2.97;;;2.80;;
8636;SDS011;4356;49.068;8.658;2023-11-18T01:55:02;3.30;;;3.10;;
8636;SDS011;4356;49.068;8.658;2023-11-18T01:57:31;2.73;;;2.63;;
8636;SDS011;4356;49.068;8.658;2023-11-18T01:59:58;3.17;;;2.97;;
8636;SDS011;4356;49.068;8.658;2023-11-18T02:02:23;3.23;;;3.03;;
8636;SDS011;4356;49.068;8.658;2023-11-18T02:04:51;3.43;;;3.23;;
8636;SDS011;4356;49.068;8.658;2023-11-18T02:07:17;2.90;;;2.70;;
8636;SDS011;4356;49.068;8.658;2023-11-18T02:09:43;2.83;;;2.70;;
8636;SDS011;4356;49.068;8.658;2023-11-18T02:14:59;4.33;;;2.43;;
8636;SDS011;4356;49.068;8.658;2023-11-18T02:17:27;2.70;;;2.50;;
8636;SDS011;4356;49.068;8.658;2023-11-18T02:19:54;2.57;;;2.47;;
8636;SDS011;4356;49.068;8.658;2023-11-18T02:22:22;2.93;;;2.73;;
8636;SDS011;4356;49.068;8.658;2023-11-18T02:24:49;2.97;;;2.77;;
8636;SDS011;4356;49.068;8.658;2023-11-18T02:27:15;2.43;;;2.33;;
8636;SDS011;4356;49.068;8.658;2023-11-18T02:29:42;2.77;;;2.57;;
8636;SDS011;4356;49.068;8.658;2023-11-18T02:34:40;2.83;;;2.63;;
8636;SDS011;4356;49.068;8.658;2023-11-18T02:37:13;3.00;;;2.80;;
8636;SDS011;4356;49.068;8.658;2023-11-18T02:39:45;2.90;;;2.80;;
8636;SDS011;4356;49.068;8.658;2023-11-18T02:42:14;2.67;;;2.57;;
8636;SDS011;4356;49.068;8.658;2023-11-18T02:44:40;2.97;;;2.87;;
8636;SDS011;4356;49.068;8.658;2023-11-18T02:47:07;3.40;;;3.10;;
8636;SDS011;4356;49.068;8.658;2023-11-18T02:49:37;3.10;;;2.90;;
8636;SDS011;4356;49.068;8.658;2023-11-18T02:52:02;3.97;;;3.17;;
8636;SDS011;4356;49.068;8.658;2023-11-18T02:54:28;3.53;;;3.33;;
8636;SDS011;4356;49.068;8.658;2023-11-18T02:56:53;3.33;;;3.13;;
8636;SDS011;4356;49.068;8.658;2023-11-18T02:59:19;3.30;;;3.10;;
8636;SDS011;4356;49.068;8.658;2023-11-18T03:01:45;3.27;;;3.07;;
8636;SDS011;4356;49.068;8.658;2023-11-18T03:04:10;3.53;;;3.23;;
8636;SDS011;4356;49.068;8.658;2023-11-18T03:06:35;3.40;;;3.17;;
8636;SDS011;4356;49.068;8.658;2023-11-18T03:09:01;4.90;;;3.27;;
8636;SDS011;4356;49.068;8.658;2023-11-18T03:11:28;3.37;;;3.17;;
8636;SDS011;4356;49.068;8.658;2023-11-18T03:13:58;3.60;;;3.23;;
8636;SDS011;4356;49.068;8.658;2023-11-18T03:16:23;3.03;;;2.93;;
8636;SDS011;4356;49.068;8.658;2023-11-18T03:18:49;3.30;;;3.10;;
8636;SDS011;4356;49.068;8.658;2023-11-18T03:21:15;2.47;;;2.37;;
8636;SDS011;4356;49.068;8.658;2023-11-18T03:23:41;3.30;;;3.10;;
8636;SDS011;4356;49.068;8.658;2023-11-18T03:26:07;2.70;;;2.60;;
8636;SDS011;4356;49.068;8.658;2023-11-18T03:28:35;3.63;;;2.57;;
8636;SDS011;4356;49.068;8.658;2023-11-18T03:31:02;3.10;;;2.90;;
8636;SDS011;4356;49.068;8.658;2023-11-18T03:33:31;3.10;;;2.90;;
8636;SDS011;4356;49.068;8.658;2023-11-18T03:35:57;3.10;;;2.73;;
8636;SDS011;4356;49.068;8.658;2023-11-18T03:38:23;2.87;;;2.70;;
8636;SDS011;4356;49.068;8.658;2023-11-18T03:40:49;2.97;;;2.87;;
8636;SDS011;4356;49.068;8.658;2023-11-18T03:43:17;3.00;;;2.80;;
8636;SDS011;4356;49.068;8.658;2023-11-18T03:45:42;3.10;;;2.90;;
8636;SDS011;4356;49.068;8.658;2023-11-18T03:48:08;2.90;;;2.80;;
8636;SDS011;4356;49.068;8.658;2023-11-18T03:50:33;3.47;;;3.27;;
8636;SDS011;4356;49.068;8.658;2023-11-18T03:52:59;4.53;;;3.27;;
8636;SDS011;4356;49.068;8.658;2023-11-18T03:55:26;3.63;;;3.30;;
8636;SDS011;4356;49.068;8.658;2023-11-18T03:57:51;3.27;;;3.07;;
8636;SDS011;4356;49.068;8.658;2023-11-18T04:00:17;3.87;;;3.33;;
8636;SDS011;4356;49.068;8.658;2023-11-18T04:02:45;3.07;;;2.97;;
8636;SDS011;4356;49.068;8.658;2023-11-18T04:05:13;3.20;;;3.07;;
8636;SDS011;4356;49.068;8.658;2023-11-18T04:07:39;3.20;;;3.00;;
8636;SDS011;4356;49.068;8.658;2023-11-18T04:10:07;2.90;;;2.73;;
8636;SDS011;4356;49.068;8.658;2023-11-18T04:12:35;2.60;;;2.50;;
8636;SDS011;4356;49.068;8.658;2023-11-18T04:15:00;3.40;;;3.20;;
8636;SDS011;4356;49.068;8.658;2023-11-18T04:17:26;4.67;;;3.30;;
8636;SDS011;4356;49.068;8.658;2023-11-18T04:19:53;3.30;;;3.10;;
8636;SDS011;4356;49.068;8.658;2023-11-18T04:22:20;4.37;;;3.37;;
8636;SDS011;4356;49.068;8.658;2023-11-18T04:24:47;3.40;;;3.20;;
8636;SDS011;4356;49.068;8.658;2023-11-18T04:27:12;3.30;;;3.10;;
8636;SDS011;4356;49.068;8.658;2023-11-18T04:29:38;3.60;;;3.40;;
8636;SDS011;4356;49.068;8.658;2023-11-18T04:32:05;3.40;;;3.20;;
8636;SDS011;4356;49.068;8.658;2023-11-18T04:34:35;3.30;;;3.10;;
8636;SDS011;4356;49.068;8.658;2023-11-18T04:37:01;3.10;;;2.90;;
8636;SDS011;4356;49.068;8.658;2023-11-18T04:39:27;3.27;;;2.97;;
8636;SDS011;4356;49.068;8.658;2023-11-18T04:41:53;3.23;;;3.03;;
8636;SDS011;4356;49.068;8.658;2023-11-18T04:44:18;4.00;;;3.40;;
8636;SDS011;4356;49.068;8.658;2023-11-18T04:46:44;3.47;;;3.20;;
8636;SDS011;4356;49.068;8.658;2023-11-18T04:49:10;3.27;;;3.07;;
8636;SDS011;4356;49.068;8.658;2023-11-18T04:51:35;3.27;;;3.10;;
8636;SDS011;4356;49.068;8.658;2023-11-18T04:54:00;3.70;;;3.40;;
8636;SDS011;4356;49.068;8.658;2023-11-18T04:56:28;3.83;;;3.53;;
8636;SDS011;4356;49.068;8.658;2023-11-18T04:58:53;4.23;;;3.23;;
8636;SDS011;4356;49.068;8.658;2023-11-18T05:01:19;4.00;;;3.57;;
8636;SDS011;4356;49.068;8.658;2023-11-18T05:03:44;4.00;;;3.67;;
8636;SDS011;4356;49.068;8.658;2023-11-18T05:06:10;4.13;;;3.80;;
8636;SDS011;4356;49.068;8.658;2023-11-18T05:08:35;3.43;;;3.23;;
8636;SDS011;4356;49.068;8.658;2023-11-18T05:11:01;4.10;;;3.80;;
8636;SDS011;4356;49.068;8.658;2023-11-18T05:13:26;3.23;;;3.03;;
8636;SDS011;4356;49.068;8.658;2023-11-18T05:15:53;3.80;;;3.50;;
8636;SDS011;4356;49.068;8.658;2023-11-18T05:18:19;3.60;;;3.40;;
8636;SDS011;4356;49.068;8.658;2023-11-18T05:20:44;3.37;;;3.17;;
8636;SDS011;4356;49.068;8.658;2023-11-18T05:23:10;3.50;;;3.30;;
8636;SDS011;4356;49.068;8.658;2023-11-18T05:25:37;3.30;;;3.10;;
8636;SDS011;4356;49.068;8.658;2023-11-18T05:28:04;3.40;;;3.10;;
8636;SDS011;4356;49.068;8.658;2023-11-18T05:30:33;3.27;;;3.07;;
8636;SDS011;4356;49.068;8.658;2023-11-18T05:33:01;3.33;;;3.13;;
8636;SDS011;4356;49.068;8.658;2023-11-18T05:35:29;3.17;;;2.97;;
8636;SDS011;4356;49.068;8.658;2023-11-18T05:37:54;4.33;;;3.13;;
8636;SDS011;4356;49.068;8.658;2023-11-18T05:40:20;3.40;;;3.20;;
8636;SDS011;4356;49.068;8.658;2023-11-18T05:42:46;2.80;;;2.70;;
8636;SDS011;4356;49.068;8.658;2023-11-18T05:45:13;2.70;;;2.60;;
8636;SDS011;4356;49.068;8.658;2023-11-18T05:47:53;3.63;;;3.43;;
8636;SDS011;4356;49.068;8.658;2023-11-18T05:50:19;3.23;;;3.03;;
8636;SDS011;4356;49.068;8.658;2023-11-18T05:52:44;4.53;;;3.30;;
8636;SDS011;4356;49.068;8.658;2023-11-18T05:55:10;2.73;;;2.57;;
8636;SDS011;4356;49.068;8.658;2023-11-18T05:57:35;3.43;;;3.13;;
8636;SDS011;4356;49.068;8.658;2023-11-18T06:00:01;3.57;;;3.37;;
8636;SDS011;4356;49.068;8.658;2023-11-18T06:02:26;3.07;;;2.87;;
8636;SDS011;4356;49.068;8.658;2023-11-18T06:04:52;3.23;;;2.93;;
8636;SDS011;4356;49.068;8.658;2023-11-18T06:07:17;3.43;;;3.23;;
8636;SDS011;4356;49.068;8.658;2023-11-18T06:09:44;3.87;;;3.60;;
8636;SDS011;4356;49.068;8.658;2023-11-18T06:12:10;3.43;;;3.23;;
8636;SDS011;4356;49.068;8.658;2023-11-18T06:14:36;3.60;;;3.30;;
8636;SDS011;4356;49.068;8.658;2023-11-18T06:17:02;3.57;;;3.27;;
8636;SDS011;4356;49.068;8.658;2023-11-18T06:19:28;5.83;;;3.20;;
8636;SDS011;4356;49.068;8.658;2023-11-18T06:21:53;2.90;;;2.80;;
8636;SDS011;4356;49.068;8.658;2023-11-18T06:24:19;3.10;;;2.90;;
8636;SDS011;4356;49.068;8.658;2023-11-18T06:26:46;3.00;;;2.80;;
8636;SDS011;4356;49.068;8.658;2023-11-18T06:29:13;3.20;;;2.93;;
8636;SDS011;4356;49.068;8.658;2023-11-18T06:31:39;3.60;;;2.83;;
8636;SDS011;4356;49.068;8.658;2023-11-18T06:34:04;2.90;;;2.47;;
8636;SDS011;4356;49.068;8.658;2023-11-18T06:36:30;2.80;;;2.70;;
8636;SDS011;4356;49.068;8.658;2023-11-18T06:38:56;3.17;;;2.87;;
8636;SDS011;4356;49.068;8.658;2023-11-18T06:41:22;2.70;;;2.60;;
8636;SDS011;4356;49.068;8.658;2023-11-18T06:43:48;4.33;;;2.73;;
8636;SDS011;4356;49.068;8.658;2023-11-18T06:46:20;3.17;;;2.97;;
8636;SDS011;4356;49.068;8.658;2023-11-18T06:48:53;2.97;;;2.77;;
8636;SDS011;4356;49.068;8.658;2023-11-18T06:51:20;3.00;;;2.90;;
8636;SDS011;4356;49.068;8.658;2023-11-18T06:53:49;2.77;;;2.67;;
8636;SDS011;4356;49.068;8.658;2023-11-18T06:56:20;2.70;;;2.50;;
8636;SDS011;4356;49.068;8.658;2023-11-18T06:58:45;3.07;;;2.80;;
8636;SDS011;4356;49.068;8.658;2023-11-18T07:01:14;2.50;;;2.40;;
8636;SDS011;4356;49.068;8.658;2023-11-18T07:03:49;2.80;;;2.60;;
8636;SDS011;4356;49.068;8.658;2023-11-18T07:06:18;2.97;;;2.77;;
8636;SDS011;4356;49.068;8.658;2023-11-18T07:08:50;3.17;;;2.73;;
8636;SDS011;4356;49.068;8.658;2023-11-18T07:11:16;3.00;;;2.80;;
8636;SDS011;4356;49.068;8.658;2023-11-18T07:13:43;3.17;;;2.97;;
8636;SDS011;4356;49.068;8.658;2023-11-18T07:16:09;2.90;;;2.70;;
8636;SDS011;4356;49.068;8.658;2023-11-18T07:18:34;2.87;;;2.67;;
8636;SDS011;4356;49.068;8.658;2023-11-18T07:21:02;3.03;;;2.83;;
8636;SDS011;4356;49.068;8.658;2023-11-18T07:23:29;3.43;;;3.03;;
8636;SDS011;4356;49.068;8.658;2023-11-18T07:25:55;3.00;;;2.80;;
8636;SDS011;4356;49.068;8.658;2023-11-18T07:28:21;3.13;;;2.93;;
8636;SDS011;4356;49.068;8.658;2023-11-18T07:30:47;2.93;;;2.73;;
8636;SDS011;4356;49.068;8.658;2023-11-18T07:33:16;2.87;;;2.67;;
8636;SDS011;4356;49.068;8.658;2023-11-18T07:35:42;4.20;;;2.70;;
8636;SDS011;4356;49.068;8.658;2023-11-18T07:38:08;2.80;;;2.60;;
8636;SDS011;4356;49.068;8.658;2023-11-18T07:40:34;2.77;;;2.67;;
8636;SDS011;4356;49.068;8.658;2023-11-18T07:43:00;2.43;;;2.20;;
8636;SDS011;4356;49.068;8.658;2023-11-18T07:45:34;3.00;;;2.80;;
8636;SDS011;4356;49.068;8.658;2023-11-18T07:48:02;3.00;;;2.80;;
8636;SDS011;4356;49.068;8.658;2023-11-18T07:50:31;2.67;;;2.57;;
8636;SDS011;4356;49.068;8.658;2023-11-18T07:52:57;2.50;;;2.40;;
8636;SDS011;4356;49.068;8.658;2023-11-18T07:55:23;2.30;;;2.13;;
8636;SDS011;4356;49.068;8.658;2023-11-18T07:57:48;2.80;;;2.60;;
8636;SDS011;4356;49.068;8.658;2023-11-18T08:00:14;2.70;;;2.57;;
8636;SDS011;4356;49.068;8.658;2023-11-18T08:02:40;3.03;;;2.83;;
8636;SDS011;4356;49.068;8.658;2023-11-18T08:05:05;2.40;;;2.30;;
8636;SDS011;4356;49.068;8.658;2023-11-18T08:07:33;2.80;;;2.60;;
8636;SDS011;4356;49.068;8.658;2023-11-18T08:09:59;3.63;;;2.60;;
8636;SDS011;4356;49.068;8.658;2023-11-18T08:12:25;4.13;;;2.63;;
8636;SDS011;4356;49.068;8.658;2023-11-18T08:14:50;2.43;;;2.30;;
8636;SDS011;4356;49.068;8.658;2023-11-18T08:17:15;2.60;;;2.50;;
8636;SDS011;4356;49.068;8.658;2023-11-18T08:19:41;2.90;;;2.70;;
8636;SDS011;4356;49.068;8.658;2023-11-18T08:22:06;5.13;;;2.67;;
8636;SDS011;4356;49.068;8.658;2023-11-18T08:24:34;2.70;;;2.60;;
8636;SDS011;4356;49.068;8.658;2023-11-18T08:26:59;3.17;;;2.50;;
8636;SDS011;4356;49.068;8.658;2023-11-18T08:29:25;2.80;;;2.60;;
8636;SDS011;4356;49.068;8.658;2023-11-18T08:31:56;2.50;;;2.40;;
8636;SDS011;4356;49.068;8.658;2023-11-18T08:34:21;2.03;;;1.93;;
8636;SDS011;4356;49.068;8.658;2023-11-18T08:36:46;2.43;;;2.23;;
8636;SDS011;4356;49.068;8.658;2023-11-18T08:39:12;5.07;;;2.33;;
8636;SDS011;4356;49.068;8.658;2023-11-18T08:41:41;1.97;;;1.87;;
8636;SDS011;4356;49.068;8.658;2023-11-18T08:44:08;2.73;;;1.90;;
8636;SDS011;4356;49.068;8.658;2023-11-18T08:46:34;1.80;;;1.70;;
8636;SDS011;4356;49.068;8.658;2023-11-18T08:48:59;2.30;;;2.20;;
8636;SDS011;4356;49.068;8.658;2023-11-18T08:51:31;1.60;;;1.50;;
8636;SDS011;4356;49.068;8.658;2023-11-18T08:53:58;1.50;;;1.40;;
8636;SDS011;4356;49.068;8.658;2023-11-18T08:56:24;1.43;;;1.33;;
8636;SDS011;4356;49.068;8.658;2023-11-18T08:58:59;2.53;;;1.73;;
8636;SDS011;4356;49.068;8.658;2023-11-18T09:01:25;1.27;;;1.27;;
8636;SDS011;4356;49.068;8.658;2023-11-18T09:03:53;1.80;;;1.70;;
8636;SDS011;4356;49.068;8.658;2023-11-18T09:06:18;1.80;;;1.70;;
8636;SDS011;4356;49.068;8.658;2023-11-18T09:08:50;1.73;;;1.63;;
8636;SDS011;4356;49.068;8.658;2023-11-18T09:11:19;1.70;;;1.70;;
8636;SDS011;4356;49.068;8.658;2023-11-18T09:13:52;1.87;;;1.77;;
8636;SDS011;4356;49.068;8.658;2023-11-18T09:16:22;1.97;;;1.87;;
8636;SDS011;4356;49.068;8.658;2023-11-18T09:18:50;1.80;;;1.70;;
8636;SDS011;4356;49.068;8.658;2023-11-18T09:21:15;1.87;;;1.77;;
8636;SDS011;4356;49.068;8.658;2023-11-18T09:23:44;1.83;;;1.73;;
8636;SDS011;4356;49.068;8.658;2023-11-18T09:26:12;1.87;;;1.77;;
8636;SDS011;4356;49.068;8.658;2023-11-18T09:28:39;1.97;;;1.87;;
8636;SDS011;4356;49.068;8.658;2023-11-18T09:31:05;2.30;;;2.07;;
8636;SDS011;4356;49.068;8.658;2023-11-18T09:33:34;2.30;;;2.20;;
8636;SDS011;4356;49.068;8.658;2023-11-18T09:36:00;2.07;;;1.97;;
8636;SDS011;4356;49.068;8.658;2023-11-18T09:38:31;2.30;;;1.90;;
8636;SDS011;4356;49.068;8.658;2023-11-18T09:40:57;2.10;;;1.97;;
8636;SDS011;4356;49.068;8.658;2023-11-18T09:43:36;2.00;;;1.90;;
8636;SDS011;4356;49.068;8.658;2023-11-18T09:46:22;1.87;;;1.77;;
8636;SDS011;4356;49.068;8.658;2023-11-18T09:48:49;1.90;;;1.80;;
8636;SDS011;4356;49.068;8.658;2023-11-18T09:51:25;2.17;;;1.80;;
8636;SDS011;4356;49.068;8.658;2023-11-18T09:53:58;1.50;;;1.40;;
8636;SDS011;4356;49.068;8.658;2023-11-18T09:59:16;2.47;;;1.50;;
8636;SDS011;4356;49.068;8.658;2023-11-18T10:01:50;1.70;;;1.60;;
8636;SDS011;4356;49.068;8.658;2023-11-18T10:04:19;1.53;;;1.43;;
8636;SDS011;4356;49.068;8.658;2023-11-18T10:06:46;1.13;;;1.13;;
8636;SDS011;4356;49.068;8.658;2023-11-18T10:09:13;1.20;;;1.20;;
8636;SDS011;4356;49.068;8.658;2023-11-18T10:11:43;1.70;;;1.60;;
8636;SDS011;4356;49.068;8.658;2023-11-18T10:14:11;1.40;;;1.40;;
8636;SDS011;4356;49.068;8.658;2023-11-18T10:16:41;1.67;;;1.57;;
8636;SDS011;4356;49.068;8.658;2023-11-18T10:19:07;1.80;;;1.70;;
8636;SDS011;4356;49.068;8.658;2023-11-18T10:21:37;1.60;;;1.50;;
8636;SDS011;4356;49.068;8.658;2023-11-18T10:24:04;1.40;;;1.30;;
8636;SDS011;4356;49.068;8.658;2023-11-18T10:26:35;1.30;;;1.30;;
8636;SDS011;4356;49.068;8.658;2023-11-18T10:29:03;2.27;;;1.20;;
8636;SDS011;4356;49.068;8.658;2023-11-18T10:31:33;1.57;;;1.47;;
8636;SDS011;4356;49.068;8.658;2023-11-18T10:34:02;1.43;;;1.27;;
8636;SDS011;4356;49.068;8.658;2023-11-18T10:36:29;1.60;;;1.53;;
8636;SDS011;4356;49.068;8.658;2023-11-18T10:38:58;1.93;;;1.83;;
8636;SDS011;4356;49.068;8.658;2023-11-18T10:41:26;2.50;;;2.10;;
8636;SDS011;4356;49.068;8.658;2023-11-18T10:44:05;1.80;;;1.70;;
8636;SDS011;4356;49.068;8.658;2023-11-18T10:46:32;1.57;;;1.47;;
8636;SDS011;4356;49.068;8.658;2023-11-18T10:48:57;1.63;;;1.53;;
8636;SDS011;4356;49.068;8.658;2023-11-18T10:51:23;2.07;;;1.80;;
8636;SDS011;4356;49.068;8.658;2023-11-18T10:53:52;2.17;;;2.07;;
8636;SDS011;4356;49.068;8.658;2023-11-18T10:56:24;3.63;;;3.43;;
8636;SDS011;4356;49.068;8.658;2023-11-18T10:59:04;3.20;;;3.00;;
8636;SDS011;4356;49.068;8.658;2023-11-18T11:01:31;4.23;;;3.83;;
8636;SDS011;4356;49.068;8.658;2023-11-18T11:03:58;1.90;;;1.80;;
8636;SDS011;4356;49.068;8.658;2023-11-18T11:06:24;1.50;;;1.50;;
8636;SDS011;4356;49.068;8.658;2023-11-18T11:08:51;1.63;;;1.53;;
8636;SDS011;4356;49.068;8.658;2023-11-18T11:11:21;2.47;;;1.60;;
8636;SDS011;4356;49.068;8.658;2023-11-18T11:13:52;1.37;;;1.37;;
8636;SDS011;4356;49.068;8.658;2023-11-18T11:16:28;1.70;;;1.60;;
8636;SDS011;4356;49.068;8.658;2023-11-18T11:19:17;1.60;;;1.60;;
8636;SDS011;4356;49.068;8.658;2023-11-18T11:22:24;6.63;;;4.07;;
8636;SDS011;4356;49.068;8.658;2023-11-18T11:30:13;1.87;;;1.77;;
8636;SDS011;4356;49.068;8.658;2023-11-18T11:32:51;1.73;;;1.63;;
8636;SDS011;4356;49.068;8.658;2023-11-18T11:35:27;3.20;;;2.40;;
8636;SDS011;4356;49.068;8.658;2023-11-18T11:37:56;1.87;;;1.77;;
8636;SDS011;4356;49.068;8.658;2023-11-18T11:40:30;2.33;;;2.23;;
8636;SDS011;4356;49.068;8.658;2023-11-18T11:42:56;4.13;;;2.00;;
8636;SDS011;4356;49.068;8.658;2023-11-18T11:45:23;1.70;;;1.60;;
8636;SDS011;4356;49.068;8.658;2023-11-18T11:47:53;2.07;;;1.97;;
8636;SDS011;4356;49.068;8.658;2023-11-18T11:50:37;1.83;;;1.73;;
8636;SDS011;4356;49.068;8.658;2023-11-18T11:53:22;2.00;;;1.90;;
8636;SDS011;4356;49.068;8.658;2023-11-18T11:55:52;2.37;;;2.17;;
8636;SDS011;4356;49.068;8.658;2023-11-18T11:58:27;2.00;;;1.90;;
8636;SDS011;4356;49.068;8.658;2023-11-18T12:00:54;2.33;;;2.13;;
8636;SDS011;4356;49.068;8.658;2023-11-18T12:03:21;2.20;;;1.97;;
8636;SDS011;4356;49.068;8.658;2023-11-18T12:05:49;2.07;;;1.87;;
8636;SDS011;4356;49.068;8.658;2023-11-18T12:08:21;1.90;;;1.80;;
8636;SDS011;4356;49.068;8.658;2023-11-18T12:10:51;2.03;;;1.93;;
8636;SDS011;4356;49.068;8.658;2023-11-18T12:13:23;2.80;;;2.07;;
8636;SDS011;4356;49.068;8.658;2023-11-18T12:15:52;2.50;;;2.30;;
8636;SDS011;4356;49.068;8.658;2023-11-18T12:18:31;3.30;;;2.67;;
8636;SDS011;4356;49.068;8.658;2023-11-18T12:21:01;2.40;;;2.20;;
8636;SDS011;4356;49.068;8.658;2023-11-18T12:23:28;1.57;;;1.57;;
8636;SDS011;4356;49.068;8.658;2023-11-18T12:25:55;2.20;;;2.10;;
8636;SDS011;4356;49.068;8.658;2023-11-18T12:30:55;2.90;;;2.40;;
8636;SDS011;4356;49.068;8.658;2023-11-18T12:33:21;3.40;;;2.30;;
8636;SDS011;4356;49.068;8.658;2023-11-18T12:41:43;1.70;;;1.60;;
8636;SDS011;4356;49.068;8.658;2023-11-18T12:47:00;3.73;;;2.97;;
8636;SDS011;4356;49.068;8.658;2023-11-18T12:49:47;4.97;;;2.50;;
8636;SDS011;4356;49.068;8.658;2023-11-18T12:52:19;2.27;;;2.17;;
8636;SDS011;4356;49.068;8.658;2023-11-18T12:54:47;1.97;;;1.87;;
8636;SDS011;4356;49.068;8.658;2023-11-18T12:57:22;6.13;;;5.63;;
8636;SDS011;4356;49.068;8.658;2023-11-18T12:59:56;5.93;;;5.43;;
8636;SDS011;4356;49.068;8.658;2023-11-18T13:02:21;4.00;;;3.70;;
8636;SDS011;4356;49.068;8.658;2023-11-18T13:04:48;3.37;;;2.17;;
8636;SDS011;4356;49.068;8.658;2023-11-18T13:07:18;2.30;;;2.20;;
8636;SDS011;4356;49.068;8.658;2023-11-18T13:09:45;2.40;;;2.30;;
8636;SDS011;4356;49.068;8.658;2023-11-18T13:12:12;2.30;;;2.20;;
8636;SDS011;4356;49.068;8.658;2023-11-18T13:14:44;4.97;;;3.30;;
8636;SDS011;4356;49.068;8.658;2023-11-18T13:17:17;4.30;;;2.87;;
8636;SDS011;4356;49.068;8.658;2023-11-18T13:19:42;3.43;;;3.13;;
8636;SDS011;4356;49.068;8.658;2023-11-18T13:22:10;3.77;;;3.47;;
8636;SDS011;4356;49.068;8.658;2023-11-18T13:24:38;2.80;;;2.60;;
8636;SDS011;4356;49.068;8.658;2023-11-18T13:27:05;2.50;;;2.13;;
8636;SDS011;4356;49.068;8.658;2023-11-18T13:29:32;4.50;;;3.00;;
8636;SDS011;4356;49.068;8.658;2023-11-18T13:31:59;5.07;;;2.67;;
8636;SDS011;4356;49.068;8.658;2023-11-18T13:34:28;3.50;;;3.20;;
8636;SDS011;4356;49.068;8.658;2023-11-18T13:36:57;3.80;;;3.50;;
8636;SDS011;4356;49.068;8.658;2023-11-18T13:39:23;2.13;;;2.03;;
8636;SDS011;4356;49.068;8.658;2023-11-18T13:41:52;2.20;;;2.10;;
8636;SDS011;4356;49.068;8.658;2023-11-18T13:44:36;7.53;;;2.80;;
8636;SDS011;4356;49.068;8.658;2023-11-18T13:47:09;2.43;;;2.30;;
8636;SDS011;4356;49.068;8.658;2023-11-18T13:49:37;5.07;;;3.30;;
8636;SDS011;4356;49.068;8.658;2023-11-18T13:52:05;5.73;;;4.00;;
8636;SDS011;4356;49.068;8.658;2023-11-18T13:54:34;3.40;;;2.77;;
8636;SDS011;4356;49.068;8.658;2023-11-18T13:57:00;1.53;;;1.43;;
8636;SDS011;4356;49.068;8.658;2023-11-18T13:59:25;1.40;;;1.40;;
8636;SDS011;4356;49.068;8.658;2023-11-18T14:01:54;1.63;;;1.53;;
8636;SDS011;4356;49.068;8.658;2023-11-18T14:04:24;1.57;;;1.57;;
8636;SDS011;4356;49.068;8.658;2023-11-18T14:06:52;1.30;;;1.30;;
8636;SDS011;4356;49.068;8.658;2023-11-18T14:09:21;1.80;;;1.63;;
8636;SDS011;4356;49.068;8.658;2023-11-18T14:11:47;2.00;;;1.63;;
8636;SDS011;4356;49.068;8.658;2023-11-18T14:14:13;1.80;;;1.70;;
8636;SDS011;4356;49.068;8.658;2023-11-18T14:16:39;1.70;;;1.60;;
8636;SDS011;4356;49.068;8.658;2023-11-18T14:19:05;1.70;;;1.60;;
8636;SDS011;4356;49.068;8.658;2023-11-18T14:21:31;1.80;;;1.70;;
8636;SDS011;4356;49.068;8.658;2023-11-18T14:23:57;2.63;;;1.43;;
8636;SDS011;4356;49.068;8.658;2023-11-18T14:26:27;1.37;;;1.37;;
8636;SDS011;4356;49.068;8.658;2023-11-18T14:28:52;1.73;;;1.63;;
8636;SDS011;4356;49.068;8.658;2023-11-18T14:31:17;1.43;;;1.33;;
8636;SDS011;4356;49.068;8.658;2023-11-18T14:33:43;1.60;;;1.50;;
8636;SDS011;4356;49.068;8.658;2023-11-18T14:36:09;2.00;;;1.90;;
8636;SDS011;4356;49.068;8.658;2023-11-18T14:38:36;2.40;;;1.93;;
8636;SDS011;4356;49.068;8.658;2023-11-18T14:41:02;2.60;;;2.43;;
8636;SDS011;4356;49.068;8.658;2023-11-18T14:43:29;3.30;;;3.10;;
8636;SDS011;4356;49.068;8.658;2023-11-18T14:45:55;3.67;;;3.47;;
8636;SDS011;4356;49.068;8.658;2023-11-18T14:48:20;3.97;;;3.73;;
8636;SDS011;4356;49.068;8.658;2023-11-18T14:50:46;3.93;;;3.63;;
8636;SDS011;4356;49.068;8.658;2023-11-18T14:53:12;2.90;;;2.70;;
8636;SDS011;4356;49.068;8.658;2023-11-18T14:55:38;2.90;;;2.10;;
8636;SDS011;4356;49.068;8.658;2023-11-18T14:58:04;3.73;;;2.30;;
8636;SDS011;4356;49.068;8.658;2023-11-18T15:00:30;4.03;;;3.73;;
8636;SDS011;4356;49.068;8.658;2023-11-18T15:02:57;5.50;;;5.10;;
8636;SDS011;4356;49.068;8.658;2023-11-18T15:05:23;6.03;;;5.43;;
8636;SDS011;4356;49.068;8.658;2023-11-18T15:07:55;6.53;;;5.13;;
8636;SDS011;4356;49.068;8.658;2023-11-18T15:10:23;4.10;;;3.83;;
8636;SDS011;4356;49.068;8.658;2023-11-18T15:12:49;3.67;;;3.30;;
8636;SDS011;4356;49.068;8.658;2023-11-18T15:15:19;3.90;;;3.70;;
8636;SDS011;4356;49.068;8.658;2023-11-18T15:17:45;8.33;;;4.53;;
8636;SDS011;4356;49.068;8.658;2023-11-18T15:20:13;4.17;;;3.87;;
8636;SDS011;4356;49.068;8.658;2023-11-18T15:22:43;3.73;;;3.43;;
8636;SDS011;4356;49.068;8.658;2023-11-18T15:25:12;2.80;;;2.63;;
8636;SDS011;4356;49.068;8.658;2023-11-18T15:27:41;3.97;;;3.37;;
8636;SDS011;4356;49.068;8.658;2023-11-18T15:30:09;3.67;;;3.37;;
8636;SDS011;4356;49.068;8.658;2023-11-18T15:32:36;3.83;;;3.53;;
8636;SDS011;4356;49.068;8.658;2023-11-18T15:35:05;3.67;;;3.37;;
8636;SDS011;4356;49.068;8.658;2023-11-18T15:37:35;3.40;;;3.10;;
8636;SDS011;4356;49.068;8.658;2023-11-18T15:40:07;4.30;;;3.23;;
8636;SDS011;4356;49.068;8.658;2023-11-18T15:42:39;3.77;;;3.27;;